createdAt,value
2022-11-23T00:00:11.744Z,1.50
2022-11-23T00:01:11.716Z,1.50
2022-11-23T00:02:11.723Z,1.80
2022-11-23T00:03:11.662Z,1.30
2022-11-23T00:04:11.753Z,1.70
2022-11-23T00:05:11.786Z,1.70
2022-11-23T00:06:11.626Z,2.00
2022-11-23T00:07:11.661Z,1.20
2022-11-23T00:08:11.780Z,1.40
2022-11-23T00:09:11.617Z,1.50
2022-11-23T00:10:11.585Z,1.60
2022-11-23T00:11:11.589Z,1.50
2022-11-23T00:12:11.584Z,1.30
2022-11-23T00:13:11.561Z,1.60
2022-11-23T00:14:11.572Z,1.60
2022-11-23T00:15:11.525Z,2.00
2022-11-23T00:16:11.530Z,1.60
2022-11-23T00:17:11.516Z,1.20
2022-11-23T00:18:11.532Z,1.60
2022-11-23T00:19:11.507Z,1.60
2022-11-23T00:20:11.467Z,1.60
2022-11-23T00:21:11.467Z,1.60
2022-11-23T00:22:11.468Z,1.70
2022-11-23T00:23:11.443Z,1.70
2022-11-23T00:24:11.428Z,1.40
2022-11-23T00:25:11.513Z,2.00
2022-11-23T00:26:11.406Z,1.50
2022-11-23T00:27:11.425Z,2.20
2022-11-23T00:28:11.514Z,1.50
2022-11-23T00:29:11.371Z,1.20
2022-11-23T00:30:11.365Z,1.50
2022-11-23T00:31:11.357Z,1.50
2022-11-23T00:32:11.331Z,2.00
2022-11-23T00:33:26.336Z,1.80
2022-11-23T00:34:11.757Z,1.80
2022-11-23T00:35:11.303Z,1.70
2022-11-23T00:36:11.315Z,1.80
2022-11-23T00:37:11.319Z,1.50
2022-11-23T00:38:11.346Z,1.80
2022-11-23T00:39:11.254Z,1.80
2022-11-23T00:40:11.267Z,1.60
2022-11-23T00:41:11.271Z,1.60
2022-11-23T00:42:11.224Z,1.70
2022-11-23T00:43:11.212Z,1.90
2022-11-23T00:44:11.221Z,1.80
2022-11-23T00:45:11.184Z,1.80
2022-11-23T00:46:11.176Z,1.50
2022-11-23T00:47:11.158Z,1.80
2022-11-23T00:48:11.145Z,1.70
2022-11-23T00:49:11.154Z,1.70
2022-11-23T00:50:11.120Z,1.90
2022-11-23T00:51:11.122Z,1.60
2022-11-23T00:52:11.120Z,1.60
2022-11-23T00:53:11.109Z,1.80
2022-11-23T00:54:11.075Z,1.90
2022-11-23T00:55:11.083Z,2.50
2022-11-23T00:56:11.080Z,2.00
2022-11-23T00:57:11.060Z,2.30
2022-11-23T00:58:11.043Z,1.90
2022-11-23T00:59:11.044Z,2.10
2022-11-23T01:00:11.019Z,1.40
2022-11-23T01:01:11.216Z,1.30
2022-11-23T01:02:11.003Z,2.40
2022-11-23T01:03:10.982Z,2.20
2022-11-23T01:04:10.972Z,1.50
2022-11-23T01:05:10.967Z,1.60
2022-11-23T01:06:10.945Z,1.80
2022-11-23T01:07:11.030Z,2.00
2022-11-23T01:08:10.936Z,1.20
2022-11-23T01:09:10.914Z,2.10
2022-11-23T01:10:10.897Z,2.10
2022-11-23T01:11:10.889Z,1.80
2022-11-23T01:12:10.917Z,2.10
2022-11-23T01:13:10.866Z,2.00
2022-11-23T01:14:10.855Z,1.60
2022-11-23T01:15:10.846Z,1.90
2022-11-23T01:16:10.831Z,1.60
2022-11-23T01:17:10.832Z,1.80
2022-11-23T01:18:10.807Z,2.30
2022-11-23T01:19:10.849Z,1.60
2022-11-23T01:20:10.843Z,1.80
2022-11-23T01:21:10.766Z,1.60
2022-11-23T01:22:10.775Z,2.40
2022-11-23T01:23:10.776Z,1.90
2022-11-23T01:24:10.742Z,1.80
2022-11-23T01:25:10.735Z,1.60
2022-11-23T01:26:10.728Z,2.30
2022-11-23T01:27:10.734Z,1.80
2022-11-23T01:28:10.701Z,2.00
2022-11-23T01:29:10.688Z,2.10
2022-11-23T01:30:10.668Z,1.70
2022-11-23T01:31:10.664Z,1.80
2022-11-23T01:32:10.652Z,1.60
2022-11-23T01:33:19.152Z,2.10
2022-11-23T01:34:10.634Z,1.50
2022-11-23T01:35:10.801Z,2.00
2022-11-23T01:36:10.652Z,1.90
2022-11-23T01:37:10.595Z,2.00
2022-11-23T01:38:15.125Z,1.80
2022-11-23T01:39:10.598Z,1.60
2022-11-23T01:40:10.553Z,1.90
2022-11-23T01:41:10.561Z,1.60
2022-11-23T01:42:13.942Z,1.60
2022-11-23T01:43:10.529Z,1.30
2022-11-23T01:44:10.519Z,1.40
2022-11-23T01:45:10.501Z,1.80
2022-11-23T01:46:10.480Z,1.90
2022-11-23T01:47:10.488Z,1.90
2022-11-23T01:48:10.460Z,2.20
2022-11-23T01:49:10.476Z,1.40
2022-11-23T01:50:10.684Z,1.70
2022-11-23T01:51:10.445Z,1.80
2022-11-23T01:52:10.421Z,2.10
2022-11-23T01:53:10.404Z,1.90
2022-11-23T01:54:10.416Z,2.40
2022-11-23T01:55:10.381Z,2.00
2022-11-23T01:56:10.381Z,2.20
2022-11-23T01:57:10.379Z,2.50
2022-11-23T01:58:10.354Z,1.60
2022-11-23T01:59:10.504Z,1.30
2022-11-23T02:00:10.342Z,1.80
2022-11-23T02:01:10.423Z,1.60
2022-11-23T02:02:10.321Z,1.60
2022-11-23T02:03:10.300Z,2.40
2022-11-23T02:04:10.280Z,1.70
2022-11-23T02:05:10.410Z,1.90
2022-11-23T02:06:10.256Z,2.20
2022-11-23T02:07:10.300Z,2.00
2022-11-23T02:08:10.295Z,1.90
2022-11-23T02:09:10.227Z,2.60
2022-11-23T02:10:10.224Z,2.10
2022-11-23T02:11:10.209Z,2.20
2022-11-23T02:12:10.198Z,2.30
2022-11-23T02:13:10.186Z,2.10
2022-11-23T02:14:10.173Z,1.60
2022-11-23T02:15:10.174Z,1.50
2022-11-23T02:16:10.226Z,2.50
2022-11-23T02:17:10.147Z,2.20
2022-11-23T02:18:10.120Z,1.90
2022-11-23T02:19:10.113Z,2.00
2022-11-23T02:20:10.105Z,2.10
2022-11-23T02:21:10.117Z,1.80
2022-11-23T02:22:10.090Z,2.10
2022-11-23T02:23:10.078Z,1.80
2022-11-23T02:24:10.057Z,2.10
2022-11-23T02:25:10.060Z,2.80
2022-11-23T02:26:10.054Z,1.80
2022-11-23T02:27:10.039Z,2.20
2022-11-23T02:28:10.024Z,1.90
2022-11-23T02:29:09.997Z,1.80
2022-11-23T02:30:09.982Z,1.90
2022-11-23T02:31:10.117Z,2.20
2022-11-23T02:32:09.974Z,2.20
2022-11-23T02:33:17.460Z,1.60
2022-11-23T02:34:09.926Z,1.90
2022-11-23T02:35:09.923Z,2.00
2022-11-23T02:36:09.925Z,2.30
2022-11-23T02:37:09.899Z,1.80
2022-11-23T02:38:09.879Z,2.50
2022-11-23T02:39:09.876Z,2.30
2022-11-23T02:40:09.867Z,1.80
2022-11-23T02:41:09.868Z,2.40
2022-11-23T02:42:09.864Z,1.80
2022-11-23T02:43:09.848Z,2.20
2022-11-23T02:44:09.834Z,2.70
2022-11-23T02:45:09.809Z,2.00
2022-11-23T02:46:09.802Z,2.10
2022-11-23T02:47:09.868Z,2.00
2022-11-23T02:48:09.777Z,2.80
2022-11-23T02:49:09.778Z,2.00
2022-11-23T02:50:09.830Z,2.10
2022-11-23T02:51:09.769Z,2.40
2022-11-23T02:52:09.755Z,1.60
2022-11-23T02:53:09.740Z,2.10
2022-11-23T02:54:09.712Z,2.10
2022-11-23T02:55:09.702Z,3.10
2022-11-23T02:56:09.689Z,2.50
2022-11-23T02:57:09.729Z,3.00
2022-11-23T02:58:09.670Z,2.20
2022-11-23T02:59:09.658Z,2.00
2022-11-23T03:00:09.648Z,1.90
2022-11-23T03:01:09.708Z,2.10
2022-11-23T03:02:09.639Z,1.90
2022-11-23T03:03:09.614Z,2.60
2022-11-23T03:04:09.597Z,2.20
2022-11-23T03:05:09.597Z,2.60
2022-11-23T03:06:09.594Z,2.00
2022-11-23T03:07:09.650Z,1.90
2022-11-23T03:08:09.551Z,2.20
2022-11-23T03:09:09.545Z,2.60
2022-11-23T03:10:09.526Z,2.20
2022-11-23T03:11:09.522Z,2.30
2022-11-23T03:12:09.516Z,2.10
2022-11-23T03:13:09.535Z,2.60
2022-11-23T03:14:09.487Z,1.80
2022-11-23T03:15:09.497Z,2.30
2022-11-23T03:16:09.466Z,2.10
2022-11-23T03:17:09.447Z,2.20
2022-11-23T03:18:09.450Z,2.00
2022-11-23T03:19:09.426Z,2.20
2022-11-23T03:20:09.430Z,2.30
2022-11-23T03:21:09.409Z,2.10
2022-11-23T03:22:09.394Z,2.10
2022-11-23T03:23:09.413Z,2.00
2022-11-23T03:24:09.381Z,2.40
2022-11-23T03:25:09.385Z,1.80
2022-11-23T03:26:12.866Z,1.90
2022-11-23T03:27:09.336Z,2.10
2022-11-23T03:28:09.322Z,2.20
2022-11-23T03:29:09.326Z,2.50
2022-11-23T03:30:09.310Z,2.20
2022-11-23T03:31:09.327Z,2.20
2022-11-23T03:32:09.280Z,2.30
2022-11-23T03:33:15.787Z,1.90
2022-11-23T03:34:09.288Z,2.20
2022-11-23T03:35:09.251Z,2.00
2022-11-23T03:36:09.261Z,2.40
2022-11-23T03:37:09.221Z,2.00
2022-11-23T03:38:09.206Z,2.30
2022-11-23T03:39:09.220Z,2.40
2022-11-23T03:40:09.205Z,2.70
2022-11-23T03:41:09.175Z,2.00
2022-11-23T03:42:09.181Z,2.30
2022-11-23T03:43:09.167Z,2.20
2022-11-23T03:44:09.172Z,2.40
2022-11-23T03:45:09.133Z,2.30
2022-11-23T03:46:09.128Z,2.20
2022-11-23T03:47:09.104Z,1.80
2022-11-23T03:48:09.104Z,1.90
2022-11-23T03:49:09.090Z,2.10
2022-11-23T03:50:09.081Z,1.90
2022-11-23T03:51:09.064Z,1.90
2022-11-23T03:52:09.075Z,2.10
2022-11-23T03:53:09.045Z,1.60
2022-11-23T03:54:09.036Z,2.10
2022-11-23T03:55:09.032Z,1.70
2022-11-23T03:56:09.016Z,1.90
2022-11-23T03:57:09.012Z,2.30
2022-11-23T03:58:09.010Z,1.60
2022-11-23T03:59:08.990Z,1.70
2022-11-23T04:00:08.976Z,1.80
2022-11-23T04:01:09.033Z,2.00
2022-11-23T04:02:08.944Z,2.00
2022-11-23T04:03:08.941Z,1.90
2022-11-23T04:04:08.918Z,2.00
2022-11-23T04:05:08.928Z,2.30
2022-11-23T04:06:08.900Z,1.90
2022-11-23T04:07:08.961Z,2.10
2022-11-23T04:08:08.872Z,1.60
2022-11-23T04:09:08.868Z,1.90
2022-11-23T04:10:08.893Z,1.90
2022-11-23T04:11:08.839Z,1.70
2022-11-23T04:12:08.824Z,2.00
2022-11-23T04:13:08.832Z,1.60
2022-11-23T04:14:08.802Z,1.50
2022-11-23T04:15:08.809Z,1.70
2022-11-23T04:16:08.799Z,1.80
2022-11-23T04:17:08.793Z,2.20
2022-11-23T04:18:08.760Z,2.50
2022-11-23T04:19:08.750Z,2.60
2022-11-23T04:20:08.740Z,2.20
2022-11-23T04:21:08.757Z,2.20
2022-11-23T04:22:08.718Z,1.80
2022-11-23T04:23:13.021Z,1.90
2022-11-23T04:24:08.691Z,2.40
2022-11-23T04:25:08.671Z,2.00
2022-11-23T04:26:08.663Z,2.00
2022-11-23T04:27:08.672Z,1.90
2022-11-23T04:28:08.644Z,2.00
2022-11-23T04:29:08.650Z,1.50
2022-11-23T04:30:08.645Z,2.00
2022-11-23T04:31:08.607Z,2.20
2022-11-23T04:32:08.596Z,1.90
2022-11-23T04:33:17.102Z,1.80
2022-11-23T04:34:08.587Z,2.20
2022-11-23T04:35:08.572Z,1.80
2022-11-23T04:36:08.561Z,2.30
2022-11-23T04:37:13.101Z,1.90
2022-11-23T04:38:08.533Z,1.60
2022-11-23T04:39:08.521Z,2.50
2022-11-23T04:40:08.508Z,1.80
2022-11-23T04:41:08.545Z,2.00
2022-11-23T04:42:08.506Z,2.10
2022-11-23T04:43:08.474Z,2.30
2022-11-23T04:44:08.463Z,2.30
2022-11-23T04:45:08.448Z,1.90
2022-11-23T04:46:08.441Z,1.60
2022-11-23T04:47:08.434Z,2.20
2022-11-23T04:48:08.454Z,2.00
2022-11-23T04:49:08.406Z,2.40
2022-11-23T04:50:08.385Z,2.00
2022-11-23T04:51:08.373Z,1.90
2022-11-23T04:52:08.366Z,2.80
2022-11-23T04:53:08.373Z,2.00
2022-11-23T04:54:08.346Z,2.10
2022-11-23T04:55:08.335Z,2.20
2022-11-23T04:56:08.345Z,2.50
2022-11-23T04:57:08.307Z,2.50
2022-11-23T04:58:08.312Z,2.30
2022-11-23T04:59:08.290Z,2.10
2022-11-23T05:00:08.316Z,2.50
2022-11-23T05:01:08.324Z,2.20
2022-11-23T05:02:08.301Z,2.20
2022-11-23T05:03:08.254Z,2.10
2022-11-23T05:04:10.393Z,2.30
2022-11-23T05:05:08.222Z,2.30
2022-11-23T05:06:08.212Z,2.40
2022-11-23T05:07:08.272Z,2.50
2022-11-23T05:08:08.212Z,2.50
2022-11-23T05:09:08.177Z,2.60
2022-11-23T05:10:08.161Z,2.10
2022-11-23T05:11:08.147Z,2.50
2022-11-23T05:12:08.152Z,2.60
2022-11-23T05:13:08.149Z,2.50
2022-11-23T05:14:08.116Z,3.30
2022-11-23T05:15:08.277Z,2.50
2022-11-23T05:16:08.104Z,2.70
2022-11-23T05:17:08.095Z,2.50
2022-11-23T05:18:08.074Z,2.60
2022-11-23T05:19:08.080Z,2.90
2022-11-23T05:20:08.295Z,3.10
2022-11-23T05:21:08.044Z,2.80
2022-11-23T05:22:08.023Z,2.60
2022-11-23T05:23:08.033Z,3.10
2022-11-23T05:24:08.026Z,3.10
2022-11-23T05:25:08.010Z,3.20
2022-11-23T05:26:07.977Z,2.90
2022-11-23T05:27:07.976Z,2.70
2022-11-23T05:28:37.966Z,2.90
2022-11-23T05:29:07.960Z,3.40
2022-11-23T05:30:07.939Z,3.40
2022-11-23T05:31:07.930Z,2.70
2022-11-23T05:32:07.920Z,3.50
2022-11-23T05:33:14.564Z,3.50
2022-11-23T05:34:07.889Z,3.00
2022-11-23T05:35:07.890Z,3.60
2022-11-23T05:36:07.865Z,4.30
2022-11-23T05:37:07.863Z,3.60
2022-11-23T05:38:07.843Z,3.60
2022-11-23T05:39:07.827Z,3.80
2022-11-23T05:40:07.819Z,3.50
2022-11-23T05:41:07.850Z,4.10
2022-11-23T05:42:07.805Z,3.10
2022-11-23T05:43:07.786Z,3.80
2022-11-23T05:44:07.787Z,3.30
2022-11-23T05:45:11.554Z,3.80
2022-11-23T05:46:07.746Z,3.90
2022-11-23T05:47:07.740Z,3.20
2022-11-23T05:48:07.738Z,3.30
2022-11-23T05:49:07.733Z,3.50
2022-11-23T05:50:07.725Z,3.20
2022-11-23T05:51:07.720Z,2.70
2022-11-23T05:52:07.687Z,3.30
2022-11-23T05:53:07.672Z,2.80
2022-11-23T05:54:07.666Z,3.50
2022-11-23T05:55:07.662Z,3.60
2022-11-23T05:56:07.653Z,4.10
2022-11-23T05:57:07.620Z,4.50
2022-11-23T05:58:07.620Z,4.10
2022-11-23T05:59:07.599Z,4.10
2022-11-23T06:00:07.957Z,4.50
2022-11-23T06:01:07.600Z,4.10
2022-11-23T06:02:07.571Z,4.10
2022-11-23T06:03:07.560Z,4.90
2022-11-23T06:04:07.692Z,4.80
2022-11-23T06:05:07.545Z,4.80
2022-11-23T06:06:07.525Z,5.10
2022-11-23T06:07:07.593Z,3.80
2022-11-23T06:08:07.617Z,4.40
2022-11-23T06:09:07.505Z,4.20
2022-11-23T06:10:07.487Z,4.80
2022-11-23T06:11:07.492Z,4.80
2022-11-23T06:12:07.457Z,5.10
2022-11-23T06:13:07.455Z,4.60
2022-11-23T06:14:12.746Z,4.90
2022-11-23T06:15:07.427Z,3.60
2022-11-23T06:16:07.450Z,4.50
2022-11-23T06:17:07.402Z,3.70
2022-11-23T06:18:07.402Z,3.90
2022-11-23T06:19:07.377Z,3.60
2022-11-23T06:20:07.387Z,3.50
2022-11-23T06:21:07.371Z,4.30
2022-11-23T06:22:07.367Z,4.30
2022-11-23T06:23:07.373Z,3.40
2022-11-23T06:24:07.355Z,3.70
2022-11-23T06:25:07.378Z,4.00
2022-11-23T06:26:07.311Z,3.30
2022-11-23T06:27:07.404Z,3.10
2022-11-23T06:28:07.293Z,3.90
2022-11-23T06:29:07.510Z,3.60
2022-11-23T06:30:07.263Z,4.00
2022-11-23T06:31:07.268Z,4.00
2022-11-23T06:32:07.250Z,4.50
2022-11-23T06:33:15.783Z,3.40
2022-11-23T06:34:07.220Z,4.10
2022-11-23T06:35:07.466Z,4.50
2022-11-23T06:36:07.202Z,3.60
2022-11-23T06:37:07.180Z,3.50
2022-11-23T06:38:07.177Z,3.60
2022-11-23T06:39:07.941Z,3.60
2022-11-23T06:40:07.197Z,3.60
2022-11-23T06:41:07.130Z,3.10
2022-11-23T06:42:31.419Z,3.50
2022-11-23T06:43:07.132Z,3.60
2022-11-23T06:44:07.159Z,3.00
2022-11-23T06:45:07.138Z,2.70
2022-11-23T06:46:07.129Z,3.80
2022-11-23T06:47:07.079Z,4.20
2022-11-23T06:48:07.077Z,4.00
2022-11-23T06:49:07.051Z,3.00
2022-11-23T06:50:07.066Z,3.80
2022-11-23T06:51:07.081Z,3.20
2022-11-23T06:52:07.009Z,3.10
2022-11-23T06:53:07.004Z,3.20
2022-11-23T06:54:06.993Z,3.80
2022-11-23T06:55:07.888Z,2.40
2022-11-23T06:56:06.966Z,2.80
2022-11-23T06:57:06.985Z,3.20
2022-11-23T06:58:07.092Z,2.90
2022-11-23T06:59:06.944Z,3.10
2022-11-23T07:00:06.936Z,3.20
2022-11-23T07:01:06.971Z,3.10
2022-11-23T07:02:06.931Z,3.50
2022-11-23T07:03:07.073Z,3.10
2022-11-23T07:04:06.936Z,2.30
2022-11-23T07:05:07.058Z,2.00
2022-11-23T07:06:06.859Z,3.20
2022-11-23T07:07:06.868Z,3.00
2022-11-23T07:08:06.871Z,3.60
2022-11-23T07:09:06.841Z,9.30
2022-11-23T07:10:07.576Z,7.20
2022-11-23T07:11:06.807Z,4.60
2022-11-23T07:12:06.814Z,3.40
2022-11-23T07:13:06.830Z,4.30
2022-11-23T07:14:06.771Z,4.20
2022-11-23T07:15:06.774Z,3.60
2022-11-23T07:16:06.740Z,2.80
2022-11-23T07:17:06.728Z,3.40
2022-11-23T07:18:06.724Z,4.10
2022-11-23T07:19:06.740Z,3.30
2022-11-23T07:20:06.689Z,3.80
2022-11-23T07:21:06.679Z,3.50
2022-11-23T07:22:06.912Z,3.60
2022-11-23T07:23:06.669Z,3.20
2022-11-23T07:24:06.659Z,3.20
2022-11-23T07:25:06.646Z,4.10
2022-11-23T07:26:06.885Z,3.70
2022-11-23T07:27:06.621Z,3.90
2022-11-23T07:28:06.598Z,3.50
2022-11-23T07:29:06.611Z,3.60
2022-11-23T07:30:06.598Z,3.60
2022-11-23T07:31:06.569Z,3.30
2022-11-23T07:32:06.556Z,2.80
2022-11-23T07:33:15.054Z,4.20
2022-11-23T07:34:06.546Z,3.20
2022-11-23T07:35:06.511Z,3.30
2022-11-23T07:36:06.518Z,3.80
2022-11-23T07:37:06.561Z,3.40
2022-11-23T07:38:06.507Z,3.10
2022-11-23T07:39:06.499Z,3.60
2022-11-23T07:40:06.789Z,3.40
2022-11-23T07:41:06.454Z,3.90
2022-11-23T07:42:30.989Z,2.60
2022-11-23T07:43:06.455Z,3.80
2022-11-23T07:44:06.421Z,3.70
2022-11-23T07:45:06.430Z,3.00
2022-11-23T07:46:06.410Z,3.40
2022-11-23T07:47:06.389Z,2.70
2022-11-23T07:48:06.392Z,2.80
2022-11-23T07:49:06.484Z,2.90
2022-11-23T07:50:06.368Z,2.30
2022-11-23T07:51:06.352Z,2.60
2022-11-23T07:52:06.386Z,2.80
2022-11-23T07:53:06.352Z,2.80
2022-11-23T07:54:06.316Z,2.50
2022-11-23T07:55:06.332Z,3.00
2022-11-23T07:56:06.288Z,2.20
2022-11-23T07:57:06.312Z,2.30
2022-11-23T07:58:06.262Z,3.10
2022-11-23T07:59:06.247Z,2.80
2022-11-23T08:00:06.270Z,2.80
2022-11-23T08:01:06.218Z,2.80
2022-11-23T08:02:06.261Z,2.90
2022-11-23T08:03:27.131Z,2.40
2022-11-23T08:04:06.203Z,3.10
2022-11-23T08:05:11.288Z,2.70
2022-11-23T08:06:06.182Z,2.80
2022-11-23T08:07:06.253Z,2.80
2022-11-23T08:08:06.540Z,2.90
2022-11-23T08:09:06.137Z,2.90
2022-11-23T08:10:06.124Z,2.50
2022-11-23T08:11:06.139Z,2.50
2022-11-23T08:12:06.141Z,3.00
2022-11-23T08:13:06.106Z,2.80
2022-11-23T08:14:06.089Z,2.70
2022-11-23T08:15:06.077Z,3.50
2022-11-23T08:16:06.088Z,2.40
2022-11-23T08:17:06.071Z,2.30
2022-11-23T08:18:06.040Z,2.30
2022-11-23T08:19:06.041Z,2.20
2022-11-23T08:20:06.080Z,2.80
2022-11-23T08:21:05.992Z,3.60
2022-11-23T08:22:05.994Z,2.90
2022-11-23T08:23:05.978Z,3.20
2022-11-23T08:24:06.009Z,2.90
2022-11-23T08:25:05.999Z,2.40
2022-11-23T08:26:10.481Z,3.40
2022-11-23T08:27:05.955Z,2.40
2022-11-23T08:28:05.986Z,2.20
2022-11-23T08:29:07.015Z,2.60
2022-11-23T08:30:05.907Z,2.20
2022-11-23T08:31:05.927Z,2.70
2022-11-23T08:32:05.928Z,3.10
2022-11-23T08:33:12.430Z,2.80
2022-11-23T08:34:05.891Z,2.40
2022-11-23T08:35:05.850Z,3.20
2022-11-23T08:36:05.864Z,3.00
2022-11-23T08:37:05.823Z,3.30
2022-11-23T08:38:05.852Z,2.90
2022-11-23T08:39:05.835Z,3.00
2022-11-23T08:40:05.816Z,2.70
2022-11-23T08:41:05.801Z,3.10
2022-11-23T08:42:05.816Z,3.90
2022-11-23T08:43:05.810Z,2.90
2022-11-23T08:44:05.768Z,2.50
2022-11-23T08:45:05.738Z,2.80
2022-11-23T08:46:10.688Z,2.50
2022-11-23T08:47:05.733Z,2.50
2022-11-23T08:48:05.727Z,3.50
2022-11-23T08:49:05.697Z,2.60
2022-11-23T08:50:05.753Z,2.40
2022-11-23T08:51:05.685Z,2.60
2022-11-23T08:52:05.677Z,2.90
2022-11-23T08:53:05.647Z,3.30
2022-11-23T08:54:05.716Z,3.50
2022-11-23T08:55:05.670Z,3.30
2022-11-23T08:56:05.643Z,2.80
2022-11-23T08:57:05.643Z,3.50
2022-11-23T08:58:10.356Z,2.90
2022-11-23T08:59:05.626Z,2.80
2022-11-23T09:00:05.588Z,2.60
2022-11-23T09:01:05.624Z,2.90
2022-11-23T09:02:05.568Z,2.90
2022-11-23T09:03:05.547Z,3.10
2022-11-23T09:04:05.545Z,2.70
2022-11-23T09:05:05.517Z,3.20
2022-11-23T09:06:05.525Z,2.40
2022-11-23T09:07:05.590Z,2.70
2022-11-23T09:08:05.481Z,2.70
2022-11-23T09:09:05.479Z,2.90
2022-11-23T09:10:05.458Z,2.70
2022-11-23T09:11:05.461Z,3.00
2022-11-23T09:12:05.508Z,2.60
2022-11-23T09:13:05.431Z,2.80
2022-11-23T09:14:05.433Z,2.50
2022-11-23T09:15:05.413Z,2.50
2022-11-23T09:16:05.444Z,3.20
2022-11-23T09:17:05.416Z,2.60
2022-11-23T09:18:05.440Z,2.50
2022-11-23T09:19:05.404Z,2.40
2022-11-23T09:20:05.418Z,2.70
2022-11-23T09:21:05.403Z,2.00
2022-11-23T09:22:05.334Z,1.80
2022-11-23T09:23:10.523Z,2.80
2022-11-23T09:24:05.362Z,1.90
2022-11-23T09:25:05.342Z,3.10
2022-11-23T09:26:05.334Z,2.30
2022-11-23T09:27:05.312Z,2.70
2022-11-23T09:28:05.289Z,2.50
2022-11-23T09:29:05.281Z,2.50
2022-11-23T09:30:05.278Z,2.40
2022-11-23T09:31:05.249Z,2.50
2022-11-23T09:32:05.455Z,2.60
2022-11-23T09:33:12.848Z,2.30
2022-11-23T09:34:05.235Z,2.40
2022-11-23T09:35:05.343Z,2.50
2022-11-23T09:36:05.202Z,2.70
2022-11-23T09:37:05.249Z,2.10
2022-11-23T09:38:05.190Z,2.50
2022-11-23T09:39:05.164Z,2.60
2022-11-23T09:40:05.173Z,2.10
2022-11-23T09:41:05.196Z,1.90
2022-11-23T09:42:05.135Z,2.40
2022-11-23T09:43:05.128Z,2.80
2022-11-23T09:44:05.092Z,1.80
2022-11-23T09:45:05.111Z,2.20
2022-11-23T09:46:05.071Z,2.20
2022-11-23T09:47:05.119Z,2.50
2022-11-23T09:48:05.053Z,2.20
2022-11-23T09:49:05.065Z,4.00
2022-11-23T09:50:05.040Z,2.50
2022-11-23T09:51:05.092Z,4.20
2022-11-23T09:52:05.015Z,4.40
2022-11-23T09:53:05.190Z,2.40
2022-11-23T09:54:04.994Z,2.20
2022-11-23T09:55:04.992Z,2.40
2022-11-23T09:56:04.960Z,2.50
2022-11-23T09:57:05.008Z,2.60
2022-11-23T09:58:04.980Z,2.40
2022-11-23T09:59:05.490Z,2.40
2022-11-23T10:00:04.922Z,2.60
2022-11-23T10:01:04.955Z,2.40
2022-11-23T10:02:04.961Z,2.60
2022-11-23T10:03:04.909Z,3.20
2022-11-23T10:04:04.967Z,3.20
2022-11-23T10:05:04.942Z,3.40
2022-11-23T10:06:04.848Z,3.00
2022-11-23T10:07:04.935Z,1.70
2022-11-23T10:08:04.865Z,1.90
2022-11-23T10:09:04.853Z,2.00
2022-11-23T10:10:04.829Z,2.10
2022-11-23T10:11:04.817Z,2.20
2022-11-23T10:12:04.961Z,1.90
2022-11-23T10:13:04.806Z,1.70
2022-11-23T10:14:04.800Z,2.40
2022-11-23T10:15:04.861Z,2.30
2022-11-23T10:16:04.775Z,2.40
2022-11-23T10:17:04.745Z,2.60
2022-11-23T10:18:04.767Z,2.80
2022-11-23T10:19:04.730Z,2.30
2022-11-23T10:20:04.771Z,2.40
2022-11-23T10:21:04.737Z,2.30
2022-11-23T10:22:04.685Z,2.30
2022-11-23T10:23:04.697Z,2.00
2022-11-23T10:24:04.678Z,2.40
2022-11-23T10:25:04.677Z,2.40
2022-11-23T10:26:04.630Z,2.10
2022-11-23T10:27:04.633Z,1.70
2022-11-23T10:28:04.631Z,1.90
2022-11-23T10:29:04.683Z,2.10
2022-11-23T10:30:04.610Z,2.60
2022-11-23T10:31:04.614Z,2.10
2022-11-23T10:32:04.573Z,1.80
2022-11-23T10:33:12.318Z,2.00
2022-11-23T10:34:04.551Z,2.30
2022-11-23T10:35:04.558Z,2.30
2022-11-23T10:36:04.535Z,1.80
2022-11-23T10:37:04.688Z,2.00
2022-11-23T10:38:04.635Z,2.20
2022-11-23T10:39:04.506Z,2.30
2022-11-23T10:40:04.480Z,2.20
2022-11-23T10:41:04.488Z,2.40
2022-11-23T10:42:04.478Z,2.10
2022-11-23T10:43:04.489Z,2.60
2022-11-23T10:44:04.469Z,1.80
2022-11-23T10:45:04.479Z,2.30
2022-11-23T10:46:04.488Z,1.80
2022-11-23T10:47:04.443Z,2.50
2022-11-23T10:48:04.404Z,2.10
2022-11-23T10:49:04.456Z,2.50
2022-11-23T10:50:04.377Z,2.30
2022-11-23T10:51:04.515Z,2.60
2022-11-23T10:52:04.453Z,2.70
2022-11-23T10:53:04.362Z,3.10
2022-11-23T10:54:05.675Z,2.30
2022-11-23T10:55:04.354Z,2.20
2022-11-23T10:56:04.301Z,2.80
2022-11-23T10:57:04.422Z,3.00
2022-11-23T10:58:04.329Z,2.40
2022-11-23T10:59:04.269Z,2.60
2022-11-23T11:00:04.289Z,4.00
2022-11-23T11:01:04.295Z,3.00
2022-11-23T11:02:04.356Z,3.00
2022-11-23T11:03:04.242Z,4.30
2022-11-23T11:04:04.224Z,3.90
2022-11-23T11:05:04.235Z,3.60
2022-11-23T11:06:11.790Z,4.00
2022-11-23T11:07:04.435Z,4.30
2022-11-23T11:08:04.178Z,3.70
2022-11-23T11:09:06.434Z,4.00
2022-11-23T11:10:04.167Z,4.30
2022-11-23T11:11:04.147Z,5.00
2022-11-23T11:12:04.304Z,4.50
2022-11-23T11:13:04.144Z,4.10
2022-11-23T11:14:04.107Z,3.70
2022-11-23T11:15:12.232Z,4.10
2022-11-23T11:16:04.088Z,4.30
2022-11-23T11:17:04.086Z,3.80
2022-11-23T11:18:04.104Z,4.10
2022-11-23T11:19:04.122Z,3.80
2022-11-23T11:20:04.042Z,4.20
2022-11-23T11:21:04.036Z,4.00
2022-11-23T11:22:04.032Z,4.10
2022-11-23T11:23:04.010Z,4.00
2022-11-23T11:24:04.028Z,3.80
2022-11-23T11:25:03.982Z,4.00
2022-11-23T11:26:04.065Z,4.20
2022-11-23T11:27:03.980Z,4.20
2022-11-23T11:28:03.982Z,3.80
2022-11-23T11:29:03.986Z,3.90
2022-11-23T11:30:03.939Z,3.90
2022-11-23T11:31:03.915Z,3.70
2022-11-23T11:32:03.904Z,3.90
2022-11-23T11:33:10.730Z,4.90
2022-11-23T11:34:03.909Z,4.20
2022-11-23T11:35:03.868Z,4.30
2022-11-23T11:36:03.858Z,3.90
2022-11-23T11:37:03.858Z,3.80
2022-11-23T11:38:03.889Z,3.90
2022-11-23T11:39:19.806Z,4.00
2022-11-23T11:40:03.824Z,4.40
2022-11-23T11:41:03.807Z,3.30
2022-11-23T11:42:03.795Z,4.30
2022-11-23T11:43:03.790Z,3.40
2022-11-23T11:44:03.775Z,4.10
2022-11-23T11:45:03.782Z,3.90
2022-11-23T11:46:27.887Z,3.90
2022-11-23T11:47:03.785Z,3.60
2022-11-23T11:48:03.759Z,4.10
2022-11-23T11:49:03.727Z,4.40
2022-11-23T11:50:03.725Z,4.10
2022-11-23T11:51:03.694Z,3.90
2022-11-23T11:52:03.702Z,4.20
2022-11-23T11:53:03.698Z,3.60
2022-11-23T11:54:03.679Z,4.30
2022-11-23T11:55:03.738Z,4.50
2022-11-23T11:56:03.652Z,4.30
2022-11-23T11:57:03.654Z,3.80
2022-11-23T11:58:03.680Z,4.10
2022-11-23T11:59:03.611Z,4.00
2022-11-23T12:00:03.626Z,4.60
2022-11-23T12:01:03.585Z,4.70
2022-11-23T12:02:03.620Z,4.20
2022-11-23T12:03:03.597Z,4.00
2022-11-23T12:04:03.561Z,4.80
2022-11-23T12:05:03.543Z,4.90
2022-11-23T12:06:03.544Z,4.60
2022-11-23T12:07:03.524Z,4.80
2022-11-23T12:08:03.525Z,4.00
2022-11-23T12:09:03.500Z,4.10
2022-11-23T12:10:03.506Z,4.50
2022-11-23T12:11:03.506Z,5.10
2022-11-23T12:12:03.746Z,4.30
2022-11-23T12:13:03.455Z,4.30
2022-11-23T12:14:03.449Z,4.40
2022-11-23T12:15:15.115Z,4.40
2022-11-23T12:16:03.470Z,4.20
2022-11-23T12:17:31.362Z,3.70
2022-11-23T12:18:03.423Z,4.00
2022-11-23T12:19:03.386Z,4.40
2022-11-23T12:20:03.393Z,4.20
2022-11-23T12:21:03.436Z,3.90
2022-11-23T12:22:03.465Z,4.30
2022-11-23T12:23:03.344Z,4.50
2022-11-23T12:24:03.346Z,4.00
2022-11-23T12:25:03.323Z,4.40
2022-11-23T12:26:03.315Z,5.00
2022-11-23T12:27:03.304Z,4.80
2022-11-23T12:28:03.655Z,4.10
2022-11-23T12:29:03.284Z,4.00
2022-11-23T12:30:03.283Z,3.80
2022-11-23T12:31:03.264Z,4.60
2022-11-23T12:32:03.289Z,4.00
2022-11-23T12:33:10.785Z,3.40
2022-11-23T12:34:03.230Z,4.20
2022-11-23T12:35:03.260Z,3.80
2022-11-23T12:36:03.194Z,4.20
2022-11-23T12:37:03.192Z,4.10
2022-11-23T12:38:03.204Z,3.70
2022-11-23T12:39:03.211Z,4.70
2022-11-23T12:40:03.161Z,4.00
2022-11-23T12:41:03.157Z,4.20
2022-11-23T12:42:03.177Z,9.80
2022-11-23T12:43:03.157Z,4.20
2022-11-23T12:44:03.114Z,4.30
2022-11-23T12:45:03.253Z,4.10
2022-11-23T12:46:03.106Z,3.90
2022-11-23T12:47:03.084Z,4.00
2022-11-23T12:48:03.080Z,3.70
2022-11-23T12:49:03.087Z,3.80
2022-11-23T12:50:03.068Z,3.60
2022-11-23T12:51:03.045Z,4.40
2022-11-23T12:52:03.052Z,4.10
2022-11-23T12:53:03.022Z,4.60
2022-11-23T12:54:03.082Z,4.00
2022-11-23T12:55:03.003Z,4.10
2022-11-23T12:56:02.997Z,4.20
2022-11-23T12:57:02.975Z,4.20
2022-11-23T12:58:02.956Z,4.40
2022-11-23T12:59:02.966Z,3.20
2022-11-23T13:00:02.954Z,3.10
2022-11-23T13:01:03.049Z,3.80
2022-11-23T13:02:02.990Z,3.50
2022-11-23T13:03:02.923Z,4.40
2022-11-23T13:04:02.927Z,3.90
2022-11-23T13:05:02.918Z,3.50
2022-11-23T13:06:02.880Z,3.20
2022-11-23T13:07:28.577Z,4.10
2022-11-23T13:08:02.893Z,3.70
2022-11-23T13:09:02.879Z,3.70
2022-11-23T13:10:02.870Z,3.70
2022-11-23T13:11:02.816Z,3.20
2022-11-23T13:12:02.812Z,3.70
2022-11-23T13:13:02.861Z,3.80
2022-11-23T13:14:02.818Z,3.80
2022-11-23T13:15:02.792Z,3.90
2022-11-23T13:16:02.913Z,3.70
2022-11-23T13:17:02.886Z,3.50
2022-11-23T13:18:02.747Z,3.40